sensor_id;sensor_type;location;lat;lon;timestamp;temperature;humidity
14699;DHT22;7439;50.804;4.602;2023-05-09T00:10:13;13.40;1.00
14699;DHT22;7439;50.804;4.602;2023-05-09T00:12:40;13.40;25.30
14699;DHT22;7439;50.804;4.602;2023-05-09T00:15:09;13.30;99.90
14699;DHT22;7439;50.804;4.602;2023-05-09T00:17:37;13.30;99.90
14699;DHT22;7439;50.804;4.602;2023-05-09T00:20:06;13.30;99.90
14699;DHT22;7439;50.804;4.602;2023-05-09T00:22:37;13.20;99.90
14699;DHT22;7439;50.804;4.602;2023-05-09T00:25:06;13.20;99.90
14699;DHT22;7439;50.804;4.602;2023-05-09T00:27:36;13.20;99.90
14699;DHT22;7439;50.804;4.602;2023-05-09T00:30:04;13.20;99.90
14699;DHT22;7439;50.804;4.602;2023-05-09T00:32:34;13.20;99.90
14699;DHT22;7439;50.804;4.602;2023-05-09T00:35:01;13.20;99.90
14699;DHT22;7439;50.804;4.602;2023-05-09T00:37:30;13.10;99.90
14699;DHT22;7439;50.804;4.602;2023-05-09T00:39:57;13.00;99.90
14699;DHT22;7439;50.804;4.602;2023-05-09T00:42:24;13.00;1.00
14699;DHT22;7439;50.804;4.602;2023-05-09T00:44:53;13.00;99.90
14699;DHT22;7439;50.804;4.602;2023-05-09T00:47:22;13.00;99.90
14699;DHT22;7439;50.804;4.602;2023-05-09T00:49:49;13.00;99.90
14699;DHT22;7439;50.804;4.602;2023-05-09T00:52:17;13.00;99.90
14699;DHT22;7439;50.804;4.602;2023-05-09T00:54:48;12.90;99.90
14699;DHT22;7439;50.804;4.602;2023-05-09T00:57:16;12.90;1.00
14699;DHT22;7439;50.804;4.602;2023-05-09T00:59:43;12.90;1.00
14699;DHT22;7439;50.804;4.602;2023-05-09T01:02:11;13.00;1.00
14699;DHT22;7439;50.804;4.602;2023-05-09T01:04:40;13.00;99.90
14699;DHT22;7439;50.804;4.602;2023-05-09T01:07:10;13.00;99.90
14699;DHT22;7439;50.804;4.602;2023-05-09T01:09:44;13.00;99.90
14699;DHT22;7439;50.804;4.602;2023-05-09T01:12:18;13.00;99.90
14699;DHT22;7439;50.804;4.602;2023-05-09T01:14:53;13.00;99.90
14699;DHT22;7439;50.804;4.602;2023-05-09T01:17:31;13.00;1.00
14699;DHT22;7439;50.804;4.602;2023-05-09T01:20:08;12.90;1.00
14699;DHT22;7439;50.804;4.602;2023-05-09T01:22:42;12.80;1.00
14699;DHT22;7439;50.804;4.602;2023-05-09T01:25:43;12.80;1.00
14699;DHT22;7439;50.804;4.602;2023-05-09T01:28:18;12.80;1.00
14699;DHT22;7439;50.804;4.602;2023-05-09T04:15:01;12.60;99.90
14699;DHT22;7439;50.804;4.602;2023-05-09T04:25:00;13.00;99.90
14699;DHT22;7439;50.804;4.602;2023-05-09T04:59:05;13.30;19.60
14699;DHT22;7439;50.804;4.602;2023-05-09T05:01:41;13.40;1.00
14699;DHT22;7439;50.804;4.602;2023-05-09T05:04:15;13.40;1.00
14699;DHT22;7439;50.804;4.602;2023-05-09T05:10:05;13.40;1.00
14699;DHT22;7439;50.804;4.602;2023-05-09T05:12:32;13.50;1.00
14699;DHT22;7439;50.804;4.602;2023-05-09T05:15:01;13.50;99.90
14699;DHT22;7439;50.804;4.602;2023-05-09T05:21:12;13.50;99.90
14699;DHT22;7439;50.804;4.602;2023-05-09T05:26:50;13.50;1.00
14699;DHT22;7439;50.804;4.602;2023-05-09T05:32:15;13.40;17.20
14699;DHT22;7439;50.804;4.602;2023-05-09T05:41:47;13.40;1.00
14699;DHT22;7439;50.804;4.602;2023-05-09T06:01:57;13.50;1.00
14699;DHT22;7439;50.804;4.602;2023-05-09T06:11:24;13.40;1.00
14699;DHT22;7439;50.804;4.602;2023-05-09T06:13:51;13.50;1.00
14699;DHT22;7439;50.804;4.602;2023-05-09T06:20:27;13.50;1.00
14699;DHT22;7439;50.804;4.602;2023-05-09T06:23:07;13.60;99.90
14699;DHT22;7439;50.804;4.602;2023-05-09T06:25:34;13.70;99.90
14699;DHT22;7439;50.804;4.602;2023-05-09T06:28:05;13.70;1.00
14699;DHT22;7439;50.804;4.602;2023-05-09T06:30:32;13.70;1.00
14699;DHT22;7439;50.804;4.602;2023-05-09T06:33:00;13.80;1.00
14699;DHT22;7439;50.804;4.602;2023-05-09T06:35:29;13.80;1.00
14699;DHT22;7439;50.804;4.602;2023-05-09T06:37:57;13.80;1.00
14699;DHT22;7439;50.804;4.602;2023-05-09T06:40:24;14.00;1.00
14699;DHT22;7439;50.804;4.602;2023-05-09T06:42:51;14.00;99.90
14699;DHT22;7439;50.804;4.602;2023-05-09T06:45:19;14.00;99.90
14699;DHT22;7439;50.804;4.602;2023-05-09T06:47:46;14.10;1.00
14699;DHT22;7439;50.804;4.602;2023-05-09T06:50:13;14.10;99.90
14699;DHT22;7439;50.804;4.602;2023-05-09T06:52:44;14.20;99.90
14699;DHT22;7439;50.804;4.602;2023-05-09T06:55:12;14.30;99.90
14699;DHT22;7439;50.804;4.602;2023-05-09T06:57:40;14.30;1.00
14699;DHT22;7439;50.804;4.602;2023-05-09T07:00:11;14.30;99.90
14699;DHT22;7439;50.804;4.602;2023-05-09T07:02:44;14.30;99.90
14699;DHT22;7439;50.804;4.602;2023-05-09T07:05:26;14.30;99.90
14699;DHT22;7439;50.804;4.602;2023-05-09T07:07:58;14.30;99.90
14699;DHT22;7439;50.804;4.602;2023-05-09T07:10:32;14.20;99.90
14699;DHT22;7439;50.804;4.602;2023-05-09T07:13:00;14.30;99.90
14699;DHT22;7439;50.804;4.602;2023-05-09T07:15:29;14.20;99.90
14699;DHT22;7439;50.804;4.602;2023-05-09T07:17:56;14.20;99.90
14699;DHT22;7439;50.804;4.602;2023-05-09T07:20:24;14.30;99.90
14699;DHT22;7439;50.804;4.602;2023-05-09T07:22:51;14.20;1.00
14699;DHT22;7439;50.804;4.602;2023-05-09T07:25:20;14.10;1.00
14699;DHT22;7439;50.804;4.602;2023-05-09T07:27:47;14.10;99.90
14699;DHT22;7439;50.804;4.602;2023-05-09T07:30:14;14.10;1.00
14699;DHT22;7439;50.804;4.602;2023-05-09T07:32:42;14.10;1.00
14699;DHT22;7439;50.804;4.602;2023-05-09T07:35:09;14.10;1.00
14699;DHT22;7439;50.804;4.602;2023-05-09T07:37:36;14.10;99.90
14699;DHT22;7439;50.804;4.602;2023-05-09T07:40:04;14.10;99.90
14699;DHT22;7439;50.804;4.602;2023-05-09T07:42:33;14.10;99.90
14699;DHT22;7439;50.804;4.602;2023-05-09T07:45:00;14.10;99.90
14699;DHT22;7439;50.804;4.602;2023-05-09T07:47:30;14.10;99.90
14699;DHT22;7439;50.804;4.602;2023-05-09T07:49:58;14.20;1.00
14699;DHT22;7439;50.804;4.602;2023-05-09T07:52:25;14.20;1.00
14699;DHT22;7439;50.804;4.602;2023-05-09T07:54:52;14.20;99.90
14699;DHT22;7439;50.804;4.602;2023-05-09T07:57:19;14.20;99.90
14699;DHT22;7439;50.804;4.602;2023-05-09T07:59:48;14.20;1.00
14699;DHT22;7439;50.804;4.602;2023-05-09T08:02:15;14.20;1.00
14699;DHT22;7439;50.804;4.602;2023-05-09T08:04:42;14.30;1.00
14699;DHT22;7439;50.804;4.602;2023-05-09T08:07:13;14.30;1.00
14699;DHT22;7439;50.804;4.602;2023-05-09T08:09:40;14.30;1.00
14699;DHT22;7439;50.804;4.602;2023-05-09T08:12:07;14.20;1.00
14699;DHT22;7439;50.804;4.602;2023-05-09T08:14:34;14.20;99.90
14699;DHT22;7439;50.804;4.602;2023-05-09T08:17:03;14.20;99.90
14699;DHT22;7439;50.804;4.602;2023-05-09T08:19:30;14.10;99.90
14699;DHT22;7439;50.804;4.602;2023-05-09T08:21:57;14.00;99.90
14699;DHT22;7439;50.804;4.602;2023-05-09T08:24:25;14.00;1.00
14699;DHT22;7439;50.804;4.602;2023-05-09T08:26:52;14.10;1.00
14699;DHT22;7439;50.804;4.602;2023-05-09T08:29:19;14.10;89.40
14699;DHT22;7439;50.804;4.602;2023-05-09T08:31:47;14.00;99.90
14699;DHT22;7439;50.804;4.602;2023-05-09T08:34:15;14.00;99.90
14699;DHT22;7439;50.804;4.602;2023-05-09T08:36:42;14.00;99.90
14699;DHT22;7439;50.804;4.602;2023-05-09T08:39:11;14.00;1.00
14699;DHT22;7439;50.804;4.602;2023-05-09T08:41:38;14.10;24.00
14699;DHT22;7439;50.804;4.602;2023-05-09T08:44:06;14.10;1.00
14699;DHT22;7439;50.804;4.602;2023-05-09T08:46:36;14.00;1.00
14699;DHT22;7439;50.804;4.602;2023-05-09T08:49:04;14.10;99.90
14699;DHT22;7439;50.804;4.602;2023-05-09T08:51:34;14.00;7.10
14699;DHT22;7439;50.804;4.602;2023-05-09T08:54:05;14.00;1.00
14699;DHT22;7439;50.804;4.602;2023-05-09T08:56:34;14.00;1.00
14699;DHT22;7439;50.804;4.602;2023-05-09T08:59:03;14.00;1.00
14699;DHT22;7439;50.804;4.602;2023-05-09T09:01:32;13.90;99.90
14699;DHT22;7439;50.804;4.602;2023-05-09T09:04:00;13.90;99.90
14699;DHT22;7439;50.804;4.602;2023-05-09T09:06:27;13.90;99.90
14699;DHT22;7439;50.804;4.602;2023-05-09T09:08:58;13.80;99.90
14699;DHT22;7439;50.804;4.602;2023-05-09T09:11:26;13.80;99.90
14699;DHT22;7439;50.804;4.602;2023-05-09T09:13:55;13.70;99.90
14699;DHT22;7439;50.804;4.602;2023-05-09T09:16:28;13.70;99.90
14699;DHT22;7439;50.804;4.602;2023-05-09T09:18:57;13.70;99.90
14699;DHT22;7439;50.804;4.602;2023-05-09T09:21:24;13.70;1.00
14699;DHT22;7439;50.804;4.602;2023-05-09T09:23:55;13.60;1.00
14699;DHT22;7439;50.804;4.602;2023-05-09T09:26:23;13.70;75.90
14699;DHT22;7439;50.804;4.602;2023-05-09T09:28:54;13.60;1.00
14699;DHT22;7439;50.804;4.602;2023-05-09T09:31:23;13.60;1.00
14699;DHT22;7439;50.804;4.602;2023-05-09T09:33:56;13.60;99.90
14699;DHT22;7439;50.804;4.602;2023-05-09T09:36:28;13.60;99.90
14699;DHT22;7439;50.804;4.602;2023-05-09T09:39:00;13.70;1.00
14699;DHT22;7439;50.804;4.602;2023-05-09T09:41:30;13.60;1.00
14699;DHT22;7439;50.804;4.602;2023-05-09T09:43:59;13.50;82.40
14699;DHT22;7439;50.804;4.602;2023-05-09T09:47:09;13.50;99.90
14699;DHT22;7439;50.804;4.602;2023-05-09T09:49:45;13.40;1.00
14699;DHT22;7439;50.804;4.602;2023-05-09T09:52:21;13.40;99.90
14699;DHT22;7439;50.804;4.602;2023-05-09T09:54:56;13.40;1.00
14699;DHT22;7439;50.804;4.602;2023-05-09T09:57:33;13.40;76.20
14699;DHT22;7439;50.804;4.602;2023-05-09T10:00:01;13.30;99.90
14699;DHT22;7439;50.804;4.602;2023-05-09T10:05:19;13.30;99.90
14699;DHT22;7439;50.804;4.602;2023-05-09T10:07:50;13.30;1.00
14699;DHT22;7439;50.804;4.602;2023-05-09T10:10:20;13.40;1.00
14699;DHT22;7439;50.804;4.602;2023-05-09T10:12:49;13.40;1.00
14699;DHT22;7439;50.804;4.602;2023-05-09T10:15:20;13.40;43.00
14699;DHT22;7439;50.804;4.602;2023-05-09T10:17:55;13.50;99.90
14699;DHT22;7439;50.804;4.602;2023-05-09T10:20:23;13.50;99.90
14699;DHT22;7439;50.804;4.602;2023-05-09T10:22:53;13.50;99.90
14699;DHT22;7439;50.804;4.602;2023-05-09T10:25:27;13.50;1.00
14699;DHT22;7439;50.804;4.602;2023-05-09T10:27:59;13.50;1.00
14699;DHT22;7439;50.804;4.602;2023-05-09T10:30:30;13.50;1.00
14699;DHT22;7439;50.804;4.602;2023-05-09T10:33:04;13.60;1.00
14699;DHT22;7439;50.804;4.602;2023-05-09T10:35:42;13.60;1.00
14699;DHT22;7439;50.804;4.602;2023-05-09T10:38:11;13.50;1.00
14699;DHT22;7439;50.804;4.602;2023-05-09T10:40:40;13.50;88.10
14699;DHT22;7439;50.804;4.602;2023-05-09T10:43:07;13.50;99.90
14699;DHT22;7439;50.804;4.602;2023-05-09T10:45:35;13.60;99.90
14699;DHT22;7439;50.804;4.602;2023-05-09T10:48:04;13.60;99.90
14699;DHT22;7439;50.804;4.602;2023-05-09T10:50:33;13.60;1.00
14699;DHT22;7439;50.804;4.602;2023-05-09T10:53:08;13.60;1.00
14699;DHT22;7439;50.804;4.602;2023-05-09T10:55:48;13.70;1.00
14699;DHT22;7439;50.804;4.602;2023-05-09T10:58:20;13.70;1.00
14699;DHT22;7439;50.804;4.602;2023-05-09T11:00:48;13.70;1.00
14699;DHT22;7439;50.804;4.602;2023-05-09T11:03:16;13.70;1.00
14699;DHT22;7439;50.804;4.602;2023-05-09T11:05:45;13.60;1.00
14699;DHT22;7439;50.804;4.602;2023-05-09T11:08:20;13.70;1.00
14699;DHT22;7439;50.804;4.602;2023-05-09T11:10:49;13.70;72.60
14699;DHT22;7439;50.804;4.602;2023-05-09T11:13:20;13.60;1.00
14699;DHT22;7439;50.804;4.602;2023-05-09T11:16:05;13.60;1.00
14699;DHT22;7439;50.804;4.602;2023-05-09T11:18:50;13.70;99.90
14699;DHT22;7439;50.804;4.602;2023-05-09T11:21:18;13.70;1.00
14699;DHT22;7439;50.804;4.602;2023-05-09T11:23:47;13.80;1.00
14699;DHT22;7439;50.804;4.602;2023-05-09T11:26:16;13.70;99.90
14699;DHT22;7439;50.804;4.602;2023-05-09T11:28:52;13.60;1.00
14699;DHT22;7439;50.804;4.602;2023-05-09T11:31:21;13.70;1.00
14699;DHT22;7439;50.804;4.602;2023-05-09T11:33:49;13.70;1.00
14699;DHT22;7439;50.804;4.602;2023-05-09T11:36:28;13.60;99.90
14699;DHT22;7439;50.804;4.602;2023-05-09T11:39:00;13.60;1.00
14699;DHT22;7439;50.804;4.602;2023-05-09T11:41:29;13.60;1.00
14699;DHT22;7439;50.804;4.602;2023-05-09T11:43:57;13.60;29.60
14699;DHT22;7439;50.804;4.602;2023-05-09T11:46:25;13.70;99.90
14699;DHT22;7439;50.804;4.602;2023-05-09T11:48:53;13.70;99.90
14699;DHT22;7439;50.804;4.602;2023-05-09T11:51:20;13.80;1.00
14699;DHT22;7439;50.804;4.602;2023-05-09T11:53:49;13.80;1.00
14699;DHT22;7439;50.804;4.602;2023-05-09T11:56:18;13.80;1.00
14699;DHT22;7439;50.804;4.602;2023-05-09T11:58:50;13.90;1.00
14699;DHT22;7439;50.804;4.602;2023-05-09T12:01:18;13.90;1.00
14699;DHT22;7439;50.804;4.602;2023-05-09T12:03:45;13.80;1.00
14699;DHT22;7439;50.804;4.602;2023-05-09T12:06:15;13.80;1.00
14699;DHT22;7439;50.804;4.602;2023-05-09T12:08:43;13.70;1.00
14699;DHT22;7439;50.804;4.602;2023-05-09T12:11:11;13.70;1.00
14699;DHT22;7439;50.804;4.602;2023-05-09T12:13:44;13.70;1.00
14699;DHT22;7439;50.804;4.602;2023-05-09T12:16:14;13.60;99.90
14699;DHT22;7439;50.804;4.602;2023-05-09T12:18:45;13.70;1.00
14699;DHT22;7439;50.804;4.602;2023-05-09T12:21:12;13.80;99.90
14699;DHT22;7439;50.804;4.602;2023-05-09T12:23:40;13.80;99.90
14699;DHT22;7439;50.804;4.602;2023-05-09T12:26:09;13.70;99.90
14699;DHT22;7439;50.804;4.602;2023-05-09T12:28:37;13.60;99.90
14699;DHT22;7439;50.804;4.602;2023-05-09T12:31:05;13.70;99.90
14699;DHT22;7439;50.804;4.602;2023-05-09T12:33:35;13.50;99.90
14699;DHT22;7439;50.804;4.602;2023-05-09T12:36:06;13.50;99.90
14699;DHT22;7439;50.804;4.602;2023-05-09T12:38:34;13.50;2.50
14699;DHT22;7439;50.804;4.602;2023-05-09T12:41:02;13.40;99.90
14699;DHT22;7439;50.804;4.602;2023-05-09T12:43:30;13.30;99.90
14699;DHT22;7439;50.804;4.602;2023-05-09T12:45:58;13.40;99.90
14699;DHT22;7439;50.804;4.602;2023-05-09T12:48:25;13.40;68.00
14699;DHT22;7439;50.804;4.602;2023-05-09T12:50:54;13.30;99.90
14699;DHT22;7439;50.804;4.602;2023-05-09T12:53:24;13.40;1.00
14699;DHT22;7439;50.804;4.602;2023-05-09T12:55:54;13.30;99.90
14699;DHT22;7439;50.804;4.602;2023-05-09T12:58:22;13.30;99.90
14699;DHT22;7439;50.804;4.602;2023-05-09T13:00:49;13.20;1.00
14699;DHT22;7439;50.804;4.602;2023-05-09T13:03:20;13.10;10.00
14699;DHT22;7439;50.804;4.602;2023-05-09T13:06:00;12.90;99.90
14699;DHT22;7439;50.804;4.602;2023-05-09T13:08:29;12.80;1.00
14699;DHT22;7439;50.804;4.602;2023-05-09T13:10:57;12.80;1.00
14699;DHT22;7439;50.804;4.602;2023-05-09T13:13:25;12.80;1.00
14699;DHT22;7439;50.804;4.602;2023-05-09T13:15:53;12.90;68.20
14699;DHT22;7439;50.804;4.602;2023-05-09T13:18:21;12.80;1.00
14699;DHT22;7439;50.804;4.602;2023-05-09T13:20:49;12.80;1.00
14699;DHT22;7439;50.804;4.602;2023-05-09T13:23:17;12.80;1.00
14699;DHT22;7439;50.804;4.602;2023-05-09T13:25:44;12.90;99.90
14699;DHT22;7439;50.804;4.602;2023-05-09T13:28:11;12.80;99.90
14699;DHT22;7439;50.804;4.602;2023-05-09T13:30:38;12.80;99.90
14699;DHT22;7439;50.804;4.602;2023-05-09T13:33:05;12.70;99.90
14699;DHT22;7439;50.804;4.602;2023-05-09T13:35:33;12.80;99.90
14699;DHT22;7439;50.804;4.602;2023-05-09T13:38:00;12.70;99.90
14699;DHT22;7439;50.804;4.602;2023-05-09T13:40:28;12.60;99.90
14699;DHT22;7439;50.804;4.602;2023-05-09T13:42:55;12.60;99.90
14699;DHT22;7439;50.804;4.602;2023-05-09T13:45:22;12.60;99.90
14699;DHT22;7439;50.804;4.602;2023-05-09T13:47:49;12.60;99.90
14699;DHT22;7439;50.804;4.602;2023-05-09T13:50:20;12.70;1.00
14699;DHT22;7439;50.804;4.602;2023-05-09T13:52:47;12.70;1.00
14699;DHT22;7439;50.804;4.602;2023-05-09T13:55:14;12.70;45.20
14699;DHT22;7439;50.804;4.602;2023-05-09T13:57:43;12.70;99.90
14699;DHT22;7439;50.804;4.602;2023-05-09T14:00:11;12.70;99.90
14699;DHT22;7439;50.804;4.602;2023-05-09T14:02:38;12.80;1.00
14699;DHT22;7439;50.804;4.602;2023-05-09T14:05:06;12.80;1.00
14699;DHT22;7439;50.804;4.602;2023-05-09T14:07:33;12.70;99.90
14699;DHT22;7439;50.804;4.602;2023-05-09T14:10:00;12.70;1.00
14699;DHT22;7439;50.804;4.602;2023-05-09T14:12:29;12.70;1.00
14699;DHT22;7439;50.804;4.602;2023-05-09T14:14:58;12.70;1.00
14699;DHT22;7439;50.804;4.602;2023-05-09T14:17:25;12.60;1.00
14699;DHT22;7439;50.804;4.602;2023-05-09T14:19:52;12.60;1.00
14699;DHT22;7439;50.804;4.602;2023-05-09T14:22:19;12.60;1.00
14699;DHT22;7439;50.804;4.602;2023-05-09T14:24:46;12.50;1.00
14699;DHT22;7439;50.804;4.602;2023-05-09T14:27:14;12.50;99.90
14699;DHT22;7439;50.804;4.602;2023-05-09T14:29:41;12.60;99.90
14699;DHT22;7439;50.804;4.602;2023-05-09T14:32:10;12.50;1.00
14699;DHT22;7439;50.804;4.602;2023-05-09T14:34:37;12.60;1.00
14699;DHT22;7439;50.804;4.602;2023-05-09T14:37:04;12.60;39.10
14699;DHT22;7439;50.804;4.602;2023-05-09T14:39:38;12.60;99.90
14699;DHT22;7439;50.804;4.602;2023-05-09T14:42:05;12.60;99.90
14699;DHT22;7439;50.804;4.602;2023-05-09T14:44:35;12.60;99.90
14699;DHT22;7439;50.804;4.602;2023-05-09T14:47:02;12.50;99.90
14699;DHT22;7439;50.804;4.602;2023-05-09T14:49:31;12.60;99.90
14699;DHT22;7439;50.804;4.602;2023-05-09T14:51:58;12.60;99.90
14699;DHT22;7439;50.804;4.602;2023-05-09T14:54:25;12.50;99.90
14699;DHT22;7439;50.804;4.602;2023-05-09T14:56:52;12.50;99.90
14699;DHT22;7439;50.804;4.602;2023-05-09T14:59:19;12.60;1.00
14699;DHT22;7439;50.804;4.602;2023-05-09T15:01:47;12.60;1.00
14699;DHT22;7439;50.804;4.602;2023-05-09T15:04:15;12.50;1.00
14699;DHT22;7439;50.804;4.602;2023-05-09T15:06:44;12.50;1.00
14699;DHT22;7439;50.804;4.602;2023-05-09T15:09:11;12.50;1.00
14699;DHT22;7439;50.804;4.602;2023-05-09T15:11:39;12.50;62.90
14699;DHT22;7439;50.804;4.602;2023-05-09T15:14:07;12.50;99.90
14699;DHT22;7439;50.804;4.602;2023-05-09T15:16:34;12.60;99.90
14699;DHT22;7439;50.804;4.602;2023-05-09T15:19:01;12.60;99.90
14699;DHT22;7439;50.804;4.602;2023-05-09T15:21:28;12.60;1.00
14699;DHT22;7439;50.804;4.602;2023-05-09T15:23:57;12.60;1.00
14699;DHT22;7439;50.804;4.602;2023-05-09T15:26:25;12.50;1.00
14699;DHT22;7439;50.804;4.602;2023-05-09T15:28:52;12.60;1.00
14699;DHT22;7439;50.804;4.602;2023-05-09T15:31:19;12.70;1.00
14699;DHT22;7439;50.804;4.602;2023-05-09T15:33:47;12.70;7.80
14699;DHT22;7439;50.804;4.602;2023-05-09T15:36:15;12.70;97.30
14699;DHT22;7439;50.804;4.602;2023-05-09T15:38:42;12.70;99.90
14699;DHT22;7439;50.804;4.602;2023-05-09T15:41:14;12.70;99.90
14699;DHT22;7439;50.804;4.602;2023-05-09T15:43:41;12.70;99.90
14699;DHT22;7439;50.804;4.602;2023-05-09T15:46:08;12.70;99.90
14699;DHT22;7439;50.804;4.602;2023-05-09T15:48:35;12.60;99.90
14699;DHT22;7439;50.804;4.602;2023-05-09T15:51:02;12.60;99.90
14699;DHT22;7439;50.804;4.602;2023-05-09T15:53:29;12.60;99.90
14699;DHT22;7439;50.804;4.602;2023-05-09T15:55:56;12.60;99.90
14699;DHT22;7439;50.804;4.602;2023-05-09T15:58:25;12.60;99.90
14699;DHT22;7439;50.804;4.602;2023-05-09T16:00:52;12.60;99.90
14699;DHT22;7439;50.804;4.602;2023-05-09T16:03:20;12.60;99.90
14699;DHT22;7439;50.804;4.602;2023-05-09T16:05:47;12.60;99.90
14699;DHT22;7439;50.804;4.602;2023-05-09T16:08:14;12.60;99.90
14699;DHT22;7439;50.804;4.602;2023-05-09T16:10:41;12.60;99.90
14699;DHT22;7439;50.804;4.602;2023-05-09T16:13:09;12.60;99.90
14699;DHT22;7439;50.804;4.602;2023-05-09T16:15:37;12.60;99.90
14699;DHT22;7439;50.804;4.602;2023-05-09T16:18:04;12.60;99.90
14699;DHT22;7439;50.804;4.602;2023-05-09T16:20:36;12.60;99.90
14699;DHT22;7439;50.804;4.602;2023-05-09T16:23:06;12.60;99.90
14699;DHT22;7439;50.804;4.602;2023-05-09T16:25:33;12.60;99.90
14699;DHT22;7439;50.804;4.602;2023-05-09T16:28:00;12.60;99.90
14699;DHT22;7439;50.804;4.602;2023-05-09T16:30:27;12.60;99.90
14699;DHT22;7439;50.804;4.602;2023-05-09T16:32:56;12.60;99.90
14699;DHT22;7439;50.804;4.602;2023-05-09T16:35:24;12.70;1.00
14699;DHT22;7439;50.804;4.602;2023-05-09T16:37:51;12.70;1.00
14699;DHT22;7439;50.804;4.602;2023-05-09T16:40:18;12.80;1.00
14699;DHT22;7439;50.804;4.602;2023-05-09T16:42:46;12.80;1.00
14699;DHT22;7439;50.804;4.602;2023-05-09T16:45:14;12.80;1.00
14699;DHT22;7439;50.804;4.602;2023-05-09T16:47:41;12.70;1.00
14699;DHT22;7439;50.804;4.602;2023-05-09T16:50:10;12.70;1.00
14699;DHT22;7439;50.804;4.602;2023-05-09T16:52:37;12.70;47.40
14699;DHT22;7439;50.804;4.602;2023-05-09T16:55:05;12.70;99.90
14699;DHT22;7439;50.804;4.602;2023-05-09T16:57:32;12.80;99.90
14699;DHT22;7439;50.804;4.602;2023-05-09T16:59:59;12.70;99.90
14699;DHT22;7439;50.804;4.602;2023-05-09T17:02:26;12.80;99.90
14699;DHT22;7439;50.804;4.602;2023-05-09T17:04:53;12.80;99.90
14699;DHT22;7439;50.804;4.602;2023-05-09T17:07:22;12.80;99.90
14699;DHT22;7439;50.804;4.602;2023-05-09T17:09:49;12.80;99.90
14699;DHT22;7439;50.804;4.602;2023-05-09T17:12:16;12.80;1.00
14699;DHT22;7439;50.804;4.602;2023-05-09T17:14:43;12.80;1.00
14699;DHT22;7439;50.804;4.602;2023-05-09T17:17:10;12.80;1.00
14699;DHT22;7439;50.804;4.602;2023-05-09T17:19:39;12.90;1.00
14699;DHT22;7439;50.804;4.602;2023-05-09T17:22:07;12.90;1.00
14699;DHT22;7439;50.804;4.602;2023-05-09T17:24:35;12.90;1.00
14699;DHT22;7439;50.804;4.602;2023-05-09T17:27:03;13.00;18.90
14699;DHT22;7439;50.804;4.602;2023-05-09T17:29:30;13.00;95.70
14699;DHT22;7439;50.804;4.602;2023-05-09T17:31:58;13.00;99.90
14699;DHT22;7439;50.804;4.602;2023-05-09T17:34:26;13.00;99.90
14699;DHT22;7439;50.804;4.602;2023-05-09T17:36:53;13.00;99.90
14699;DHT22;7439;50.804;4.602;2023-05-09T17:39:21;13.00;99.90
14699;DHT22;7439;50.804;4.602;2023-05-09T17:41:49;13.00;99.90
14699;DHT22;7439;50.804;4.602;2023-05-09T17:44:17;13.00;99.90
14699;DHT22;7439;50.804;4.602;2023-05-09T17:46:46;13.00;99.90
14699;DHT22;7439;50.804;4.602;2023-05-09T17:49:13;13.10;99.90
14699;DHT22;7439;50.804;4.602;2023-05-09T17:51:41;13.00;99.90
14699;DHT22;7439;50.804;4.602;2023-05-09T17:54:08;13.10;99.90
14699;DHT22;7439;50.804;4.602;2023-05-09T17:56:36;13.10;99.90
14699;DHT22;7439;50.804;4.602;2023-05-09T17:59:04;13.00;99.90
14699;DHT22;7439;50.804;4.602;2023-05-09T18:01:32;13.00;99.90
14699;DHT22;7439;50.804;4.602;2023-05-09T18:03:59;13.00;99.90
14699;DHT22;7439;50.804;4.602;2023-05-09T18:06:26;13.00;99.90
14699;DHT22;7439;50.804;4.602;2023-05-09T18:08:54;13.00;99.90
14699;DHT22;7439;50.804;4.602;2023-05-09T18:11:21;13.00;99.90
14699;DHT22;7439;50.804;4.602;2023-05-09T18:13:49;13.10;99.90
14699;DHT22;7439;50.804;4.602;2023-05-09T18:16:18;13.10;99.90
14699;DHT22;7439;50.804;4.602;2023-05-09T18:18:46;13.10;99.90
14699;DHT22;7439;50.804;4.602;2023-05-09T18:21:13;13.10;99.90
14699;DHT22;7439;50.804;4.602;2023-05-09T18:23:40;13.10;99.90
14699;DHT22;7439;50.804;4.602;2023-05-09T18:26:07;13.10;99.90
14699;DHT22;7439;50.804;4.602;2023-05-09T18:28:35;13.10;99.90
14699;DHT22;7439;50.804;4.602;2023-05-09T18:31:05;13.10;99.90
14699;DHT22;7439;50.804;4.602;2023-05-09T18:33:37;13.10;99.90
14699;DHT22;7439;50.804;4.602;2023-05-09T18:36:05;13.10;99.90
14699;DHT22;7439;50.804;4.602;2023-05-09T18:38:33;13.10;99.90
14699;DHT22;7439;50.804;4.602;2023-05-09T18:41:02;13.10;99.90
14699;DHT22;7439;50.804;4.602;2023-05-09T18:43:30;13.10;99.90
14699;DHT22;7439;50.804;4.602;2023-05-09T18:45:57;13.10;99.90
14699;DHT22;7439;50.804;4.602;2023-05-09T18:48:24;13.10;99.90
14699;DHT22;7439;50.804;4.602;2023-05-09T18:50:53;13.10;99.90
14699;DHT22;7439;50.804;4.602;2023-05-09T18:53:20;13.10;99.90
14699;DHT22;7439;50.804;4.602;2023-05-09T18:55:47;13.10;99.90
14699;DHT22;7439;50.804;4.602;2023-05-09T18:58:15;13.10;99.90
14699;DHT22;7439;50.804;4.602;2023-05-09T19:00:42;13.10;99.90
14699;DHT22;7439;50.804;4.602;2023-05-09T19:03:10;13.10;99.90
14699;DHT22;7439;50.804;4.602;2023-05-09T19:05:38;13.10;99.90
14699;DHT22;7439;50.804;4.602;2023-05-09T19:08:06;13.10;99.90
14699;DHT22;7439;50.804;4.602;2023-05-09T19:10:34;13.00;99.90
14699;DHT22;7439;50.804;4.602;2023-05-09T19:13:03;13.00;99.90
14699;DHT22;7439;50.804;4.602;2023-05-09T19:15:30;13.00;99.90
14699;DHT22;7439;50.804;4.602;2023-05-09T19:17:58;13.00;99.90
14699;DHT22;7439;50.804;4.602;2023-05-09T19:20:25;13.00;99.90
14699;DHT22;7439;50.804;4.602;2023-05-09T19:22:54;13.00;99.90
14699;DHT22;7439;50.804;4.602;2023-05-09T19:25:24;13.00;99.90
14699;DHT22;7439;50.804;4.602;2023-05-09T19:27:52;13.00;99.90
14699;DHT22;7439;50.804;4.602;2023-05-09T19:30:21;13.00;99.90
14699;DHT22;7439;50.804;4.602;2023-05-09T19:32:50;13.00;99.90
14699;DHT22;7439;50.804;4.602;2023-05-09T19:35:27;12.90;99.90
14699;DHT22;7439;50.804;4.602;2023-05-09T19:37:56;12.90;99.90
14699;DHT22;7439;50.804;4.602;2023-05-09T19:40:27;12.90;99.90
14699;DHT22;7439;50.804;4.602;2023-05-09T19:42:54;12.90;99.90
14699;DHT22;7439;50.804;4.602;2023-05-09T19:45:22;12.90;99.90
14699;DHT22;7439;50.804;4.602;2023-05-09T19:47:49;12.90;99.90
14699;DHT22;7439;50.804;4.602;2023-05-09T19:50:16;12.90;99.90
14699;DHT22;7439;50.804;4.602;2023-05-09T19:52:44;12.80;99.90
14699;DHT22;7439;50.804;4.602;2023-05-09T19:55:11;12.90;99.90
14699;DHT22;7439;50.804;4.602;2023-05-09T19:57:40;12.80;99.90
14699;DHT22;7439;50.804;4.602;2023-05-09T20:00:08;12.90;99.90
14699;DHT22;7439;50.804;4.602;2023-05-09T20:02:35;12.90;99.90
14699;DHT22;7439;50.804;4.602;2023-05-09T20:05:02;12.80;99.90
14699;DHT22;7439;50.804;4.602;2023-05-09T20:07:29;12.80;99.90
14699;DHT22;7439;50.804;4.602;2023-05-09T20:09:56;12.80;99.90
14699;DHT22;7439;50.804;4.602;2023-05-09T20:12:23;12.70;99.90
14699;DHT22;7439;50.804;4.602;2023-05-09T20:14:54;12.70;99.90
14699;DHT22;7439;50.804;4.602;2023-05-09T20:17:21;12.70;99.90
14699;DHT22;7439;50.804;4.602;2023-05-09T20:19:49;12.70;99.90
14699;DHT22;7439;50.804;4.602;2023-05-09T20:22:16;12.60;99.90
14699;DHT22;7439;50.804;4.602;2023-05-09T20:24:43;12.60;99.90
14699;DHT22;7439;50.804;4.602;2023-05-09T20:27:10;12.60;99.90